Time;durP1;ratioP1;P1;durP2;ratioP2;P2;SDS_P1;SDS_P2;PMS_P1;PMS_P2;Temp;Humidity;BMP_temperature;BMP_pressure;BME280_temperature;BME280_humidity;BME280_pressure;Samples;Min_cycle;Max_cycle;Signal;HPM_P1;HPM_P2
2021/06/19 00:00:09;;;;;;;23.52;9.55;;;;;;;15.94;73.10;100707.91;5012022;28;20046;-69
2021/06/19 00:02:35;;;;;;;20.67;9.25;;;;;;;15.96;72.95;100708.63;5012212;28;20117;-71
2021/06/19 00:05:00;;;;;;;26.35;9.38;;;;;;;15.97;73.22;100712.97;5012024;28;20187;-69
2021/06/19 00:07:27;;;;;;;21.17;9.27;;;;;;;15.98;73.22;100705.84;5012318;28;20517;-77
2021/06/19 00:09:52;;;;;;;24.77;10.88;;;;;;;15.97;73.15;100712.97;5012146;28;20026;-73
2021/06/19 00:12:19;;;;;;;21.63;9.90;;;;;;;15.97;73.50;100712.13;5012022;28;20045;-76
2021/06/19 00:14:45;;;;;;;23.98;9.95;;;;;;;15.96;73.09;100708.63;5012122;28;20058;-72
2021/06/19 00:17:12;;;;;;;21.15;10.07;;;;;;;15.95;73.62;100720.28;5011475;28;20368;-74
2021/06/19 00:19:38;;;;;;;23.88;10.93;;;;;;;15.93;73.76;100711.53;5012144;28;20045;-73
2021/06/19 00:22:05;;;;;;;27.60;10.90;;;;;;;15.93;73.71;100714.22;5010473;28;20034;-69
2021/06/19 00:24:38;;;;;;;24.50;9.68;;;;;;;15.94;73.63;100721.25;5011969;28;20045;-70
2021/06/19 00:27:05;;;;;;;22.40;10.35;;;;;;;15.94;73.47;100717.75;5011699;28;20037;-76
2021/06/19 00:29:31;;;;;;;29.55;11.45;;;;;;;15.90;73.37;100711.81;5027003;28;20030;-70
2021/06/19 00:31:57;;;;;;;25.63;11.13;;;;;;;15.83;73.24;100708.78;5010473;28;20034;-72
2021/06/19 00:34:24;;;;;;;30.42;10.80;;;;;;;15.79;73.70;100715.34;5011470;28;20049;-73
2021/06/19 00:36:50;;;;;;;29.08;11.85;;;;;;;15.77;73.60;100716.44;5014577;28;20054;-69
2021/06/19 00:39:16;;;;;;;22.60;10.63;;;;;;;15.74;73.71;100711.34;5025612;28;20364;-72
2021/06/19 00:41:42;;;;;;;29.75;12.15;;;;;;;15.67;73.59;100717.16;5043975;28;20044;-69
2021/06/19 00:44:20;;;;;;;35.97;11.77;;;;;;;15.65;73.69;100718.28;5013594;28;20464;-72
2021/06/19 00:46:50;;;;;;;25.60;11.85;;;;;;;15.65;73.68;100716.47;5015066;28;20446;-69
2021/06/19 00:49:16;;;;;;;26.10;11.40;;;;;;;15.65;73.57;100718.28;5013982;28;20044;-72
2021/06/19 00:51:42;;;;;;;28.33;12.52;;;;;;;15.60;73.62;100721.34;5012718;28;20038;-68
2021/06/19 00:54:07;;;;;;;28.80;12.40;;;;;;;15.62;73.55;100722.03;5014750;28;20033;-71
2021/06/19 00:56:37;;;;;;;36.13;12.93;;;;;;;15.60;73.51;100726.66;5030093;28;20036;-70
2021/06/19 00:59:06;;;;;;;41.97;13.05;;;;;;;15.62;73.52;100729.19;5034614;28;20041;-70
2021/06/19 01:01:33;;;;;;;32.03;13.52;;;;;;;15.61;73.24;100728.34;5034504;28;20120;-69
2021/06/19 01:04:00;;;;;;;31.10;12.43;;;;;;;15.63;73.50;100726.41;5033632;28;20352;-70
2021/06/19 01:06:26;;;;;;;28.95;13.35;;;;;;;15.65;73.30;100727.13;5034726;28;20037;-73
2021/06/19 01:08:52;;;;;;;32.72;13.20;;;;;;;15.66;73.20;100735.97;5017906;28;20040;-72
2021/06/19 01:11:21;;;;;;;28.05;13.05;;;;;;;15.66;73.13;100731.50;5014878;28;20034;-71
2021/06/19 01:13:51;;;;;;;29.52;12.90;;;;;;;15.69;73.18;100725.06;5015083;28;20041;-70
2021/06/19 01:16:18;;;;;;;34.67;13.63;;;;;;;15.69;73.10;100719.75;5014249;28;20121;-73
2021/06/19 01:18:44;;;;;;;27.80;13.18;;;;;;;15.67;73.21;100730.50;5015404;28;20030;-70
2021/06/19 01:21:14;;;;;;;29.40;13.10;;;;;;;15.67;73.17;100735.00;5015055;28;20049;-69
2021/06/19 01:23:40;;;;;;;29.92;13.13;;;;;;;15.67;73.41;100737.69;5014650;28;20117;-72
2021/06/19 01:26:06;;;;;;;33.85;14.52;;;;;;;15.70;73.40;100740.06;5014436;28;20072;-69
2021/06/19 01:28:32;;;;;;;37.85;13.38;;;;;;;15.71;73.30;100731.09;5014408;28;20037;-72
2021/06/19 01:30:58;;;;;;;30.10;13.27;;;;;;;15.73;73.46;100731.00;5014420;28;20042;-73
2021/06/19 01:33:24;;;;;;;28.55;13.68;;;;;;;15.75;73.37;100729.03;5014354;28;20026;-69
2021/06/19 01:35:50;;;;;;;29.85;13.13;;;;;;;15.78;73.53;100739.47;5014366;28;20053;-70
2021/06/19 01:38:16;;;;;;;28.40;12.98;;;;;;;15.78;73.48;100734.97;5014116;28;20041;-74
2021/06/19 01:40:42;;;;;;;25.65;12.43;;;;;;;15.81;73.34;100741.88;5014085;28;20387;-70
2021/06/19 01:43:07;;;;;;;28.42;12.50;;;;;;;15.78;73.32;100747.47;5013717;28;20038;-70
2021/06/19 01:45:34;;;;;;;23.42;12.32;;;;;;;15.75;73.08;100734.38;5032014;28;20111;-67
2021/06/19 01:48:05;;;;;;;27.58;12.15;;;;;;;15.78;73.30;100744.81;5048939;28;20033;-69
2021/06/19 01:50:32;;;;;;;33.30;13.07;;;;;;;15.80;73.34;100737.50;5032913;28;20076;-68
2021/06/19 01:52:59;;;;;;;28.50;12.82;;;;;;;15.82;72.85;100740.94;5033792;28;20033;-69
2021/06/19 01:55:25;;;;;;;30.05;13.57;;;;;;;15.82;72.82;100748.94;5022001;28;20479;-68
2021/06/19 01:57:56;;;;;;;24.55;12.93;;;;;;;15.83;72.84;100748.81;5013217;28;20045;-68
2021/06/19 02:00:25;;;;;;;24.25;11.68;;;;;;;15.87;72.96;100743.22;5011526;28;20534;-71
2021/06/19 02:07:24;;;;;;;20.40;11.55;;;;;;;15.92;72.71;100752.53;4971162;28;20046;-70
2021/06/19 02:09:50;;;;;;;29.50;16.08;;;;;;;15.92;72.26;100757.88;4972273;28;20086;-70
2021/06/19 02:25:01;;;;;;;25.10;14.43;;;;;;;16.05;71.76;100754.19;4896423;29;20043;-69
2021/06/19 02:33:40;;;;;;;;;;;;;;;;;;;;;
2021/06/19 02:36:58;;;;;;;26.00;16.25;;;;;;;16.18;72.14;100768.22;4835373;29;20094;-72
2021/06/19 02:39:24;;;;;;;25.08;15.95;;;;;;;16.18;72.22;100770.88;4821139;29;20054;-68
2021/06/19 02:41:49;;;;;;;27.42;16.08;;;;;;;16.18;72.42;100762.88;4821290;29;20094;-70
2021/06/19 02:44:15;;;;;;;25.77;15.93;;;;;;;16.24;72.07;100762.38;4820871;29;20171;-69
2021/06/19 02:46:41;;;;;;;23.50;14.93;;;;;;;16.30;71.80;100761.84;4821264;29;20078;-70
2021/06/19 02:49:07;;;;;;;24.10;14.13;;;;;;;16.38;71.29;100757.69;4820939;29;20477;-69
2021/06/19 02:51:33;;;;;;;26.55;14.18;;;;;;;16.47;71.02;100762.25;4821366;29;20156;-71
2021/06/19 02:53:59;;;;;;;20.33;14.25;;;;;;;16.52;70.83;100767.22;4805776;29;20042;-70
2021/06/19 02:56:25;;;;;;;20.50;13.20;;;;;;;16.56;70.61;100760.63;4823210;29;20106;-68
2021/06/19 02:58:51;;;;;;;24.58;13.43;;;;;;;16.62;70.25;100763.63;4875717;29;20132;-70
2021/06/19 03:01:16;;;;;;;24.63;13.20;;;;;;;16.62;69.52;100763.63;4875884;29;20128;-69
2021/06/19 03:03:42;;;;;;;26.75;14.63;;;;;;;16.66;69.44;100762.38;4860826;29;20538;-69
2021/06/19 03:06:08;;;;;;;27.35;14.48;;;;;;;16.70;69.31;100762.97;4866301;29;20579;-69
2021/06/19 03:08:34;;;;;;;25.60;13.95;;;;;;;16.74;69.15;100764.41;4876100;29;20051;-71
2021/06/19 03:11:00;;;;;;;22.80;14.18;;;;;;;16.76;68.81;100757.09;4932632;29;20043;-70
2021/06/19 03:13:26;;;;;;;24.23;14.43;;;;;;;16.85;68.33;100752.78;4954133;28;20045;-70
2021/06/19 03:15:52;;;;;;;24.95;14.98;;;;;;;16.92;68.50;100759.34;4992684;28;20038;-72
2021/06/19 03:18:18;;;;;;;23.88;13.90;;;;;;;16.98;68.70;100761.47;4992477;28;20038;-69
2021/06/19 03:20:44;;;;;;;22.13;13.98;;;;;;;17.05;68.27;100750.25;4992912;28;20364;-70
2021/06/19 03:23:09;;;;;;;20.58;11.93;;;;;;;17.11;67.21;100750.56;4992627;28;20117;-72
2021/06/19 03:25:42;;;;;;;23.35;13.02;;;;;;;17.23;67.56;100758.47;4992784;28;20527;-69
2021/06/19 03:28:09;;;;;;;19.10;12.35;;;;;;;17.28;66.79;100759.78;4992801;28;20069;-70
2021/06/19 03:30:37;;;;;;;19.67;11.90;;;;;;;17.35;66.21;100764.59;4991530;28;20409;-69
2021/06/19 03:33:04;;;;;;;18.75;11.00;;;;;;;17.42;65.88;100757.69;4992696;28;20379;-70
2021/06/19 03:35:30;;;;;;;14.88;8.55;;;;;;;17.48;64.20;100750.97;4992548;28;20046;-69
2021/06/19 03:37:56;;;;;;;14.63;9.68;;;;;;;17.57;63.77;100750.13;4991004;28;20054;-71
2021/06/19 03:40:25;;;;;;;14.95;9.35;;;;;;;17.67;63.23;100750.16;4991811;28;20430;-69
2021/06/19 03:42:51;;;;;;;15.02;8.15;;;;;;;17.76;62.78;100760.03;4991029;28;20065;-71
2021/06/19 03:45:19;;;;;;;18.20;9.10;;;;;;;17.83;62.70;100763.84;5023139;28;20041;-72
2021/06/19 03:47:46;;;;;;;12.10;9.73;;;;;;;17.93;62.86;100764.69;5031604;28;20042;-71
2021/06/19 03:50:18;;;;;;;13.40;9.10;;;;;;;18.04;62.54;100763.72;5031401;28;20037;-73
2021/06/19 03:52:44;;;;;;;14.25;9.25;;;;;;;18.14;62.29;100763.75;5031938;28;20048;-73
2021/06/19 03:55:11;;;;;;;13.55;10.02;;;;;;;19.02;60.54;100757.44;5020589;28;20026;-69
2021/06/19 03:57:36;;;;;;;16.52;9.40;;;;;;;21.03;55.19;100752.81;5012255;28;20038;-69
2021/06/19 04:00:10;;;;;;;17.48;9.43;;;;;;;22.76;50.99;100750.44;4998824;28;20414;-68
2021/06/19 04:02:38;;;;;;;11.55;9.02;;;;;;;24.13;47.30;100752.84;5004370;28;20038;-70
2021/06/19 04:05:06;;;;;;;13.95;8.73;;;;;;;25.04;44.94;100752.00;4993044;28;20088;-73
2021/06/19 04:07:32;;;;;;;;;;;;;;;25.78;42.83;100750.22;5007741;28;20057;-70
2021/06/19 04:09:57;;;;;;;12.43;8.23;;;;;;;26.71;41.01;100747.50;4998011;28;20363;-71
2021/06/19 04:12:24;;;;;;;12.97;8.97;;;;;;;27.00;39.87;100752.94;5013495;28;20382;-72
2021/06/19 04:14:50;;;;;;;13.98;9.18;;;;;;;27.58;39.42;100756.13;4999629;28;20100;-71
2021/06/19 04:17:17;;;;;;;16.13;8.53;;;;;;;28.44;37.58;100756.50;5013786;28;20368;-70
2021/06/19 04:19:43;;;;;;;16.75;8.65;;;;;;;29.40;35.87;100753.34;5015778;28;20288;-74
2021/06/19 04:22:10;;;;;;;13.85;8.88;;;;;;;29.99;35.24;100754.09;5015913;28;20033;-70
2021/06/19 04:24:36;;;;;;;11.13;8.70;;;;;;;30.65;34.05;100754.63;5015690;28;20523;-70
2021/06/19 04:27:03;;;;;;;12.63;8.53;;;;;;;31.48;32.45;100748.84;5015625;28;20124;-72
2021/06/19 04:29:31;;;;;;;11.50;8.48;;;;;;;31.91;31.68;100750.59;5015061;28;20300;-70
2021/06/19 04:32:00;;;;;;;14.40;8.68;;;;;;;32.22;31.12;100756.88;5015417;28;20080;-70
2021/06/19 04:34:26;;;;;;;15.88;9.20;;;;;;;32.62;30.24;100755.34;5015323;28;20033;-71
2021/06/19 04:36:53;;;;;;;16.75;10.45;;;;;;;32.52;30.77;100755.94;5015610;28;20455;-72
2021/06/19 04:39:20;;;;;;;13.27;10.00;;;;;;;32.09;31.42;100755.97;5015576;28;20069;-72
2021/06/19 04:44:42;;;;;;;18.75;9.93;;;;;;;32.53;30.92;100749.38;5015023;28;20038;-71
2021/06/19 04:47:03;;;;;;;15.52;9.57;;;;;;;32.85;29.87;100751.75;5015110;28;20419;-72
2021/06/19 04:49:28;;;;;;;16.37;9.97;;;;;;;32.45;30.62;100752.47;5014844;28;20037;-71
2021/06/19 04:51:54;;;;;;;12.27;8.87;;;;;;;33.50;29.48;100747.09;5014941;28;20463;-72
2021/06/19 04:54:21;;;;;;;17.20;9.02;;;;;;;33.42;29.23;100748.28;5014968;28;20128;-73
2021/06/19 04:56:47;;;;;;;17.13;8.47;;;;;;;34.55;28.13;100749.44;5014594;28;20117;-73
2021/06/19 04:59:12;;;;;;;9.33;7.23;;;;;;;34.59;27.42;100756.09;5014581;28;20046;-72
2021/06/19 05:01:39;;;;;;;10.23;5.10;;;;;;;34.91;26.30;100741.72;5013544;28;20038;-77
2021/06/19 05:04:04;;;;;;;7.47;4.32;;;;;;;35.35;25.94;100738.13;5014995;28;20038;-72
2021/06/19 05:06:31;;;;;;;9.73;4.97;;;;;;;35.51;24.75;100741.09;5014369;28;20061;-70
2021/06/19 05:08:57;;;;;;;12.27;5.05;;;;;;;36.07;24.81;100743.53;5014904;28;20038;-74
2021/06/19 05:11:23;;;;;;;10.63;5.07;;;;;;;36.52;24.31;100736.72;5014610;28;20038;-70
2021/06/19 05:13:48;;;;;;;8.43;4.72;;;;;;;36.79;23.73;100737.69;5014260;28;20053;-75
2021/06/19 05:16:17;;;;;;;11.68;5.03;;;;;;;37.89;22.43;100732.28;5014485;28;20076;-70
2021/06/19 05:18:43;;;;;;;8.65;4.50;;;;;;;38.19;22.16;100737.75;5014662;28;20044;-76
2021/06/19 05:21:09;;;;;;;10.35;4.80;;;;;;;37.73;22.59;100729.44;5014016;28;20038;-72
2021/06/19 05:23:34;;;;;;;6.93;3.95;;;;;;;37.77;22.23;100724.22;5008954;28;20092;-75
2021/06/19 05:26:00;;;;;;;10.23;3.78;;;;;;;38.03;22.09;100727.81;5003473;28;20037;-74
2021/06/19 05:28:26;;;;;;;5.28;3.10;;;;;;;39.03;20.55;100725.41;5001839;28;20030;-73
2021/06/19 05:30:52;;;;;;;7.70;3.58;;;;;;;39.63;20.03;100719.00;5003678;28;20502;-74
2021/06/19 05:33:17;;;;;;;7.00;3.10;;;;;;;38.82;19.64;100725.50;5003407;28;20490;-72
2021/06/19 05:35:43;;;;;;;6.68;2.88;;;;;;;39.82;19.42;100726.59;5001915;28;20072;-72
2021/06/19 05:38:09;;;;;;;4.78;2.13;;;;;;;40.85;17.62;100731.13;5004095;28;20036;-79
2021/06/19 05:40:35;;;;;;;7.13;2.85;;;;;;;40.56;17.80;100730.09;5002036;28;20884;-71
2021/06/19 05:43:01;;;;;;;4.15;2.53;;;;;;;40.67;16.91;100730.78;5001441;28;20049;-74
2021/06/19 05:45:27;;;;;;;3.67;2.35;;;;;;;40.41;17.81;100721.91;5006565;28;20041;-76
2021/06/19 05:47:53;;;;;;;3.50;2.08;;;;;;;39.77;18.59;100719.19;5002216;28;20134;-71
2021/06/19 05:50:19;;;;;;;9.90;2.45;;;;;;;40.93;17.31;100716.59;5002185;28;20521;-74
2021/06/19 05:52:44;;;;;;;5.30;2.20;;;;;;;40.25;16.96;100721.25;5003887;28;20038;-74
2021/06/19 05:55:10;;;;;;;5.40;2.30;;;;;;;40.71;17.18;100720.75;5006603;28;20034;-73
2021/06/19 05:57:37;;;;;;;6.97;1.98;;;;;;;40.73;16.98;100721.28;5013276;28;20111;-73
2021/06/19 06:00:07;;;;;;;4.20;2.00;;;;;;;41.23;16.61;100722.88;5013267;28;20061;-78
2021/06/19 06:02:41;;;;;;;4.15;1.63;;;;;;;41.81;16.02;100701.44;5013269;28;20042;-76
2021/06/19 06:05:07;;;;;;;4.10;1.85;;;;;;;42.56;15.16;100705.09;5012911;28;20049;-74
2021/06/19 06:07:33;;;;;;;5.40;2.00;;;;;;;42.78;15.39;100704.38;5012999;28;20049;-78
2021/06/19 06:09:59;;;;;;;;;;;;;;;43.01;14.82;100710.03;5013446;28;20077;-72
2021/06/19 06:12:24;;;;;;;5.18;2.13;;;;;;;42.46;15.52;100710.84;5013120;28;19944;-76
2021/06/19 06:14:50;;;;;;;;;;;;;;;41.80;15.64;100706.19;5013368;28;20522;-76
2021/06/19 06:17:16;;;;;;;6.57;2.30;;;;;;;42.64;15.45;100706.34;5012810;28;20250;-73
2021/06/19 06:19:42;;;;;;;;;;;;;;;42.66;14.84;100696.53;5011515;28;20172;-75
2021/06/19 06:22:07;;;;;;;11.07;2.60;;;;;;;42.68;14.79;100702.63;5012454;28;19913;-71
2021/06/19 06:24:33;;;;;;;;;;;;;;;41.61;15.38;100709.03;5012812;28;20041;-73
2021/06/19 06:27:00;;;;;;;13.10;1.95;;;;;;;41.26;15.73;100713.13;5012815;28;20469;-72
2021/06/19 06:29:26;;;;;;;5.57;2.25;;;;;;;39.99;16.19;100710.38;5012218;28;20085;-72
2021/06/19 06:31:51;;;;;;;;;;;;;;;39.68;17.51;100705.13;5011061;28;20061;-79
2021/06/19 06:34:19;;;;;;;6.47;2.20;;;;;;;40.02;16.54;100704.25;5009687;28;20056;-80
2021/06/19 06:36:44;;;;;;;5.72;2.17;;;;;;;40.60;15.99;100697.03;5012447;28;20050;-83
2021/06/19 06:39:10;;;;;;;;;;;;;;;41.65;15.34;100687.81;5012334;28;20471;-74
2021/06/19 06:41:36;;;;;;;6.18;2.20;;;;;;;41.54;14.89;100708.56;5011409;28;20060;-72
2021/06/19 06:44:02;;;;;;;;;;;;;;;40.82;15.50;100704.00;5017065;28;20033;-72
2021/06/19 06:46:27;;;;;;;4.75;1.92;;;;;;;40.22;16.26;100696.91;5031641;28;19917;-71
2021/06/19 06:48:53;;;;;;;4.53;3.10;;;;;;;39.88;16.23;100700.50;5031475;28;20096;-74
2021/06/19 06:51:19;;;;;;;;;;;;;;;40.92;15.94;100695.53;5032127;28;20095;-72
2021/06/19 06:53:44;;;;;;;;;;;;;;;41.11;15.97;100697.53;5030913;28;19909;-75
2021/06/19 06:56:10;;;;;;;;;;;;;;;40.01;16.43;100697.06;5032242;28;20022;-78
2021/06/19 06:58:35;;;;;;;;;;;;;;;40.99;15.98;100693.25;5032087;28;19913;-74
2021/06/19 07:01:01;;;;;;;;;;;;;;;42.02;15.16;100685.25;5032157;28;19913;-76
2021/06/19 07:03:27;;;;;;;;;;;;;;;41.26;15.18;100690.91;5032041;28;20286;-76
2021/06/19 07:05:53;;;;;;;6.18;2.40;;;;;;;41.05;15.36;100697.59;5030795;28;19917;-75
2021/06/19 07:08:19;;;;;;;5.13;3.10;;;;;;;39.70;16.28;100686.25;5032181;28;20119;-77
2021/06/19 07:10:44;;;;;;;;;;;;;;;39.47;16.41;100688.63;5032802;28;20148;-75
2021/06/19 07:13:10;;;;;;;6.80;3.88;;;;;;;38.88;17.31;100683.97;5032511;28;19909;-77
2021/06/19 07:15:36;;;;;;;;;;;;;;;41.24;15.52;100683.72;5032573;28;20050;-71
2021/06/19 07:18:02;;;;;;;4.72;2.30;;;;;;;40.31;16.02;100683.22;5032420;28;19908;-75
2021/06/19 07:20:28;;;;;;;7.90;2.70;;;;;;;40.27;15.44;100677.44;5032368;28;20071;-75
2021/06/19 07:22:54;;;;;;;;;;;;;;;39.42;16.53;100685.91;5032287;28;20065;-72
2021/06/19 07:25:19;;;;;;;3.90;2.33;;;;;;;39.72;16.36;100684.03;5032281;28;19912;-76
2021/06/19 07:27:53;;;;;;;4.95;2.17;;;;;;;41.13;15.51;100673.09;5032444;28;20038;-74
2021/06/19 07:30:20;;;;;;;5.80;2.40;;;;;;;42.34;14.64;100669.66;5032057;28;20033;-74
2021/06/19 07:32:45;;;;;;;9.15;3.13;;;;;;;43.21;14.08;100674.50;5030964;28;20044;-73
2021/06/19 07:35:11;;;;;;;7.43;2.83;;;;;;;41.96;14.26;100680.91;5047685;28;20525;-74
2021/06/19 07:37:37;;;;;;;;;;;;;;;40.33;15.47;100686.50;5032595;28;20041;-72
2021/06/19 07:40:04;;;;;;;4.15;3.20;;;;;;;39.65;16.43;100675.19;5030640;28;20251;-75
2021/06/19 07:42:31;;;;;;;4.70;2.25;;;;;;;41.39;14.91;100674.31;5030783;28;20068;-75
2021/06/19 07:44:57;;;;;;;5.47;2.35;;;;;;;42.27;14.40;100667.31;5018904;28;20064;-74
2021/06/19 07:47:22;;;;;;;;;;;;;;;42.09;14.72;100676.53;5016466;28;20038;-74
2021/06/19 07:49:48;;;;;;;5.65;2.35;;;;;;;43.08;13.94;100665.03;5015748;28;19959;-74
2021/06/19 07:52:14;;;;;;;6.50;4.68;;;;;;;42.83;13.89;100668.09;5016313;28;20037;-74
2021/06/19 07:54:40;;;;;;;3.97;2.42;;;;;;;41.14;14.78;100677.47;5016054;28;20117;-75
2021/06/19 07:57:06;;;;;;;;;;;;;;;41.11;15.32;100667.00;5016834;28;20033;-74
2021/06/19 07:59:33;;;;;;;2.50;2.20;;;;;;;40.71;15.51;100670.81;5015968;28;20251;-75
2021/06/19 08:01:59;;;;;;;6.05;2.35;;;;;;;39.77;16.03;100669.31;5016067;28;20041;-78
2021/06/19 08:04:25;;;;;;;4.25;2.20;;;;;;;39.79;15.89;100673.44;5016188;28;20041;-76
2021/06/19 08:06:51;;;;;;;;;;;;;;;41.42;14.79;100656.25;5016236;28;20471;-80
2021/06/19 08:09:16;;;;;;;6.57;2.17;;;;;;;42.83;14.11;100658.91;5015854;28;20255;-76
2021/06/19 08:11:42;;;;;;;;;;;;;;;43.10;13.76;100657.22;5016583;28;20045;-75
2021/06/19 08:14:08;;;;;;;7.78;3.33;;;;;;;43.29;13.56;100660.66;5015850;28;19917;-76
2021/06/19 08:16:37;;;;;;;6.07;3.10;;;;;;;42.47;13.90;100663.28;5014206;28;20033;-74
2021/06/19 08:19:03;;;;;;;3.10;2.40;;;;;;;41.38;14.82;100653.22;5014684;28;20045;-77
2021/06/19 08:21:29;;;;;;;7.18;4.35;;;;;;;42.18;13.90;100647.69;5015820;28;20048;-82
2021/06/19 08:23:56;;;;;;;6.05;3.97;;;;;;;41.75;14.78;100655.41;5015781;28;20125;-78
2021/06/19 08:26:22;;;;;;;2.47;2.22;;;;;;;43.19;13.38;100652.53;5015662;28;20037;-73
2021/06/19 08:28:48;;;;;;;5.50;2.40;;;;;;;41.72;13.94;100645.75;5030684;28;20537;-78
2021/06/19 08:31:14;;;;;;;4.45;2.45;;;;;;;40.64;15.20;100650.97;5015917;28;20029;-80
2021/06/19 08:33:39;;;;;;;;;;;;;;;39.37;16.08;100644.41;5015740;28;20188;-78
2021/06/19 08:36:05;;;;;;;5.40;2.33;;;;;;;40.56;15.59;100646.06;5015299;28;19918;-76
2021/06/19 08:38:31;;;;;;;5.20;4.15;;;;;;;40.92;15.26;100642.81;5015453;28;20045;-78
2021/06/19 08:40:57;;;;;;;;;;;;;;;40.80;15.35;100639.66;5015774;28;20040;-76
2021/06/19 08:43:23;;;;;;;5.70;2.80;;;;;;;40.06;16.20;100636.03;5014334;28;19913;-76
2021/06/19 08:45:50;;;;;;;;;;;;;;;39.45;16.63;100637.44;5034522;28;20088;-73
2021/06/19 08:48:17;;;;;;;3.20;2.10;;;;;;;40.10;15.96;100627.97;5033614;28;19912;-78
2021/06/19 08:50:44;;;;;;;8.00;3.30;;;;;;;40.29;15.52;100630.84;5034487;28;20091;-79
2021/06/19 08:53:11;;;;;;;3.00;1.92;;;;;;;39.00;16.49;100634.66;5033874;28;20048;-75
2021/06/19 08:55:37;;;;;;;;;;;;;;;38.66;17.22;100618.81;5033447;28;20398;-75
2021/06/19 08:58:04;;;;;;;4.28;2.17;;;;;;;38.70;17.43;100619.88;5034120;28;20258;-75
2021/06/19 09:00:30;;;;;;;5.53;3.05;;;;;;;40.25;16.05;100619.53;5034853;28;20038;-76
2021/06/19 09:02:56;;;;;;;;;;;;;;;40.20;15.65;100619.56;5035596;28;20088;-75
2021/06/19 09:05:28;;;;;;;9.85;3.55;;;;;;;40.49;15.54;100612.28;5034726;28;20358;-75
2021/06/19 09:07:56;;;;;;;5.47;2.30;;;;;;;39.68;16.36;100615.66;5034938;28;20033;-75
2021/06/19 09:10:28;;;;;;;3.97;2.80;;;;;;;40.16;16.22;100623.25;5034675;28;20076;-79
2021/06/19 09:13:06;;;;;;;5.65;1.90;;;;;;;40.61;15.70;100603.59;5034441;28;20430;-74
2021/06/19 09:15:38;;;;;;;5.53;2.00;;;;;;;41.90;15.11;100598.78;5034927;28;20041;-76
2021/06/19 09:18:11;;;;;;;6.28;2.08;;;;;;;42.29;13.81;100601.06;5034958;28;20132;-75
2021/06/19 09:20:52;;;;;;;5.40;1.70;;;;;;;41.03;14.77;100602.69;5034288;28;20040;-77
2021/06/19 09:23:32;;;;;;;5.40;1.85;;;;;;;41.02;15.41;100589.94;5034642;28;20038;-74
2021/06/19 09:26:11;;;;;;;7.82;2.20;;;;;;;40.70;15.63;100605.38;5034460;28;20048;-77
2021/06/19 09:29:07;;;;;;;4.28;1.83;;;;;;;40.14;16.22;100597.75;5034116;28;20037;-76
2021/06/19 09:31:53;;;;;;;3.55;1.70;;;;;;;41.65;15.39;100586.97;5034303;28;20481;-74
2021/06/19 09:34:23;;;;;;;;;;;;;;;39.66;16.21;100598.53;5034859;28;20483;-79
2021/06/19 09:36:53;;;;;;;5.60;1.60;;;;;;;39.33;15.93;100600.97;5033856;28;19913;-74
2021/06/19 09:39:24;;;;;;;3.70;1.60;;;;;;;38.62;16.58;100595.56;5034239;28;20045;-81
2021/06/19 09:42:04;;;;;;;2.70;1.48;;;;;;;38.42;17.78;100593.75;5034003;28;20072;-80
2021/06/19 09:44:46;;;;;;;3.65;1.80;;;;;;;38.85;17.35;100591.34;5024501;28;20033;-80
2021/06/19 09:47:16;;;;;;;4.22;1.55;;;;;;;39.65;16.32;100589.34;5014408;28;20034;-74
2021/06/19 09:49:44;;;;;;;4.55;1.63;;;;;;;38.79;17.04;100593.28;5014080;28;20030;-73
2021/06/19 09:52:11;;;;;;;4.97;1.73;;;;;;;38.59;17.18;100590.63;5014332;28;20073;-79
2021/06/19 09:54:43;;;;;;;3.60;1.30;;;;;;;38.74;17.13;100582.22;5012795;28;20529;-78
2021/06/19 09:57:16;;;;;;;4.00;1.20;;;;;;;38.82;17.43;100583.59;5011361;28;20121;-80
2021/06/19 09:59:43;;;;;;;4.43;1.60;;;;;;;37.57;18.35;100587.00;5012832;28;20049;-75
2021/06/19 10:02:28;;;;;;;2.40;1.20;;;;;;;37.49;18.79;100586.44;5013541;28;20042;-77
2021/06/19 10:04:56;;;;;;;5.07;1.60;;;;;;;38.17;17.69;100587.16;5013801;28;20462;-77
2021/06/19 10:07:24;;;;;;;6.75;1.70;;;;;;;37.86;18.43;100579.81;5013029;28;20049;-79
2021/06/19 10:09:51;;;;;;;4.25;1.40;;;;;;;37.46;18.22;100573.22;5013817;28;20049;-78
2021/06/19 10:12:25;;;;;;;2.75;1.13;;;;;;;37.08;18.50;100575.38;5014358;28;20034;-75
2021/06/19 10:14:55;;;;;;;2.03;1.08;;;;;;;37.24;18.38;100574.28;5014070;28;20087;-75
2021/06/19 10:17:28;;;;;;;3.45;1.40;;;;;;;36.04;20.28;100570.56;5012543;28;20034;-75
2021/06/19 10:19:55;;;;;;;5.45;1.58;;;;;;;35.54;20.73;100569.94;5013707;28;20464;-75
2021/06/19 10:22:33;;;;;;;4.15;1.25;;;;;;;35.52;21.70;100567.44;5013965;28;20093;-75
2021/06/19 10:25:04;;;;;;;3.17;1.60;;;;;;;35.59;21.15;100573.56;5013671;28;20040;-74
2021/06/19 10:27:32;;;;;;;2.78;1.13;;;;;;;34.96;20.76;100568.56;5012302;28;20084;-72
2021/06/19 10:29:58;;;;;;;3.00;1.40;;;;;;;34.92;21.33;100561.94;5013111;28;20062;-75
2021/06/19 10:32:44;;;;;;;2.97;1.15;;;;;;;35.73;21.18;100557.41;5013343;28;20467;-71
2021/06/19 10:35:13;;;;;;;5.55;1.60;;;;;;;35.97;19.92;100557.03;5013263;28;20045;-74
2021/06/19 10:37:39;;;;;;;3.65;1.30;;;;;;;36.20;19.08;100557.69;5012843;28;20046;-75
2021/06/19 10:40:19;;;;;;;5.15;1.80;;;;;;;36.31;18.87;100550.31;5028614;28;20474;-73
2021/06/19 10:42:45;;;;;;;3.90;1.77;;;;;;;35.34;20.81;100549.38;5012468;28;20036;-82
2021/06/19 10:45:23;;;;;;;8.53;1.73;;;;;;;35.16;20.45;100542.38;5028186;28;20034;-73
2021/06/19 10:48:01;;;;;;;5.78;1.90;;;;;;;34.26;22.04;100548.19;5032909;28;20041;-76
2021/06/19 10:50:28;;;;;;;2.95;1.25;;;;;;;34.06;22.13;100544.13;5031450;28;20037;-76
2021/06/19 10:53:26;;;;;;;;;;;;;;;34.16;21.58;100535.19;5033457;28;20037;-78
2021/06/19 10:55:54;;;;;;;4.85;1.67;;;;;;;34.02;22.68;100530.06;4993924;28;20373;-75
2021/06/19 10:58:30;;;;;;;3.63;1.52;;;;;;;33.02;24.03;100544.38;5010404;28;20037;-80
2021/06/19 11:00:59;;;;;;;;;;;;;;;32.38;24.75;100545.31;5011156;28;20038;-76
2021/06/19 11:03:47;;;;;;;4.18;1.90;;;;;;;32.05;24.64;100541.31;5010701;28;19936;-75
2021/06/19 11:06:20;;;;;;;3.10;1.40;;;;;;;32.47;24.52;100533.97;4994519;28;20453;-75
2021/06/19 11:09:15;;;;;;;2.40;1.48;;;;;;;32.59;24.16;100532.84;5010129;28;20033;-77
2021/06/19 11:12:05;;;;;;;3.47;1.20;;;;;;;33.14;23.81;100529.78;5010549;28;20111;-77
2021/06/19 11:14:40;;;;;;;4.60;1.77;;;;;;;32.91;24.56;100531.53;5010382;28;20129;-75
2021/06/19 11:17:32;;;;;;;2.13;1.30;;;;;;;32.09;25.03;100537.00;5010315;28;20065;-75
2021/06/19 11:20:02;;;;;;;6.38;1.60;;;;;;;32.49;25.84;100518.13;4998976;28;20055;-72
2021/06/19 11:22:40;;;;;;;7.97;5.32;;;;;;;32.45;25.33;100522.44;5010056;28;20046;-77
2021/06/19 11:25:36;;;;;;;8.63;6.07;;;;;;;32.44;24.95;100524.34;5010308;28;20053;-75
2021/06/19 11:28:10;;;;;;;;;;;;;;;32.38;25.16;100517.09;5010355;28;20029;-76
2021/06/19 11:30:36;;;;;;;5.55;4.22;;;;;;;32.33;25.07;100506.88;5013078;28;20373;-74
2021/06/19 11:33:19;;;;;;;8.07;4.47;;;;;;;32.32;24.74;100513.41;5032346;28;20115;-76
2021/06/19 11:35:47;;;;;;;3.38;1.52;;;;;;;32.17;24.73;100510.34;5032012;28;20072;-75
2021/06/19 11:38:13;;;;;;;4.20;1.40;;;;;;;31.87;24.31;100506.69;5032535;28;20136;-76
2021/06/19 11:40:40;;;;;;;2.37;1.33;;;;;;;31.39;25.26;100510.47;5031996;28;20037;-74
2021/06/19 11:43:07;;;;;;;3.00;1.35;;;;;;;30.86;26.26;100499.31;5031842;28;20128;-74
2021/06/19 11:45:34;;;;;;;4.07;1.25;;;;;;;30.74;26.13;100507.44;5028879;28;20041;-74
2021/06/19 11:48:04;;;;;;;3.60;1.50;;;;;;;30.54;27.13;100506.91;5012468;28;20038;-74
2021/06/19 11:50:33;;;;;;;8.38;2.00;;;;;;;30.49;28.40;100500.25;5012090;28;20069;-76
2021/06/19 11:53:23;;;;;;;2.80;1.48;;;;;;;30.47;27.86;100496.88;5012092;28;20379;-75
2021/06/19 11:55:50;;;;;;;3.60;1.58;;;;;;;30.60;27.63;100493.16;5012386;28;20041;-73
2021/06/19 11:58:16;;;;;;;3.92;1.92;;;;;;;30.63;27.31;100491.84;5012548;28;20045;-77
2021/06/19 12:00:55;;;;;;;3.97;1.30;;;;;;;30.36;28.31;100489.47;5012588;28;20037;-75